createdAt,value
2023-05-10T00:02:11.369Z,1.23
2023-05-10T00:04:44.854Z,1.35
2023-05-10T00:07:21.380Z,1.60
2023-05-10T00:09:53.240Z,1.38
2023-05-10T00:12:37.644Z,1.25
2023-05-10T00:15:21.144Z,1.30
2023-05-10T00:18:06.476Z,1.50
2023-05-10T00:56:43.174Z,1.58
2023-05-10T00:59:14.078Z,1.55
2023-05-10T01:01:44.282Z,2.20
2023-05-10T01:04:15.624Z,2.33
2023-05-10T01:06:46.261Z,2.65
2023-05-10T01:09:16.492Z,2.83
2023-05-10T01:11:48.759Z,2.75
2023-05-10T01:14:22.277Z,2.70
2023-05-10T01:16:53.850Z,2.53
2023-05-10T01:19:29.907Z,2.70
2023-05-10T01:22:17.876Z,2.50
2023-05-10T01:25:19.016Z,2.70
2023-05-10T01:28:12.660Z,2.78
2023-05-10T01:31:10.361Z,2.95
2023-05-10T01:34:02.490Z,2.75
2023-05-10T01:36:37.917Z,2.45
2023-05-10T01:39:29.268Z,2.70
2023-05-10T01:42:29.384Z,2.15
2023-05-10T01:45:18.486Z,1.92
2023-05-10T01:48:05.838Z,1.45
2023-05-10T01:50:40.123Z,1.25
2023-05-10T01:53:14.237Z,1.42
2023-05-10T01:55:56.533Z,1.42
2023-05-10T01:58:33.596Z,1.50
2023-05-10T02:01:07.268Z,1.40
2023-05-10T02:03:40.599Z,1.23
2023-05-10T02:06:13.618Z,1.25
2023-05-10T02:08:45.297Z,1.40
2023-05-10T02:11:17.963Z,1.17
2023-05-10T02:13:50.956Z,1.05
2023-05-10T02:16:25.489Z,1.30
2023-05-10T02:18:57.453Z,1.15
2023-05-10T02:21:31.518Z,1.08
2023-05-10T02:24:04.405Z,1.20
2023-05-10T02:26:38.069Z,1.00
2023-05-10T02:29:09.955Z,1.02
2023-05-10T02:31:41.911Z,1.30
2023-05-10T02:34:14.021Z,1.10
2023-05-10T02:36:45.654Z,1.20
2023-05-10T02:39:17.150Z,1.13
2023-05-10T02:41:50.245Z,1.30
2023-05-10T02:44:22.496Z,1.20
2023-05-10T02:46:52.922Z,1.20
2023-05-10T02:49:24.597Z,1.27
2023-05-10T02:52:03.637Z,1.58
2023-05-10T02:54:38.556Z,1.17
2023-05-10T02:57:10.803Z,1.20
2023-05-10T02:59:41.913Z,1.25
2023-05-10T03:02:13.584Z,1.48
2023-05-10T03:04:44.731Z,1.20
2023-05-10T03:07:15.088Z,1.38
2023-05-10T03:09:45.591Z,1.23
2023-05-10T03:12:31.408Z,1.40
2023-05-10T03:15:45.110Z,1.20
2023-05-10T03:18:54.347Z,1.30
2023-05-10T03:21:30.131Z,1.20
2023-05-10T03:24:09.430Z,1.30
2023-05-10T03:26:42.869Z,1.60
2023-05-10T03:29:20.058Z,1.25
2023-05-10T03:31:50.564Z,1.33
2023-05-10T03:34:27.490Z,1.02
2023-05-10T03:36:58.077Z,1.13
2023-05-10T03:39:30.258Z,1.10
2023-05-10T03:42:02.908Z,1.40
2023-05-10T03:44:35.646Z,1.08
2023-05-10T03:47:06.079Z,1.20
2023-05-10T03:49:36.568Z,1.23
2023-05-10T03:52:07.782Z,1.30
2023-05-10T03:54:39.121Z,1.30
2023-05-10T03:57:09.433Z,1.40
2023-05-10T03:59:39.520Z,1.30
2023-05-10T04:02:10.227Z,1.33
2023-05-10T04:04:41.602Z,1.30
2023-05-10T04:07:12.777Z,1.23
2023-05-10T04:09:44.273Z,1.35
2023-05-10T04:12:14.644Z,1.52
2023-05-10T04:14:44.657Z,1.20
2023-05-10T04:17:15.989Z,1.58
2023-05-10T04:19:47.385Z,1.10
2023-05-10T04:22:19.145Z,1.40
2023-05-10T04:24:49.456Z,1.20
2023-05-10T04:27:19.467Z,1.27
2023-05-10T04:29:51.088Z,1.40
2023-05-10T04:32:22.889Z,1.30
2023-05-10T04:34:56.377Z,1.20
2023-05-10T04:37:26.641Z,1.35
2023-05-10T04:39:57.844Z,1.40
2023-05-10T04:42:29.305Z,1.10
2023-05-10T04:45:02.201Z,1.20
2023-05-10T04:47:34.076Z,1.25
2023-05-10T04:50:04.524Z,1.38
2023-05-10T04:52:34.594Z,1.27
2023-05-10T04:55:06.203Z,1.42
2023-05-10T04:57:37.594Z,1.45
2023-05-10T05:00:09.468Z,1.05
2023-05-10T05:02:40.694Z,1.40
2023-05-10T05:05:11.937Z,1.17
2023-05-10T05:07:42.878Z,1.38
2023-05-10T05:10:14.090Z,1.23
2023-05-10T05:12:44.348Z,1.60
2023-05-10T05:15:14.428Z,1.30
2023-05-10T05:17:45.705Z,1.77
2023-05-10T05:20:17.265Z,1.52
2023-05-10T05:22:48.889Z,1.45
2023-05-10T05:25:19.603Z,1.70
2023-05-10T05:27:49.834Z,1.60
2023-05-10T05:30:21.752Z,1.40
2023-05-10T05:32:52.010Z,1.50
2023-05-10T05:35:22.183Z,1.42
2023-05-10T05:37:52.523Z,1.55
2023-05-10T05:40:23.856Z,1.35
2023-05-10T05:42:54.901Z,1.60
2023-05-10T05:45:26.328Z,1.45
2023-05-10T05:47:56.769Z,1.60
2023-05-10T05:50:27.561Z,1.60
2023-05-10T05:52:57.743Z,1.38
2023-05-10T05:55:28.472Z,1.70
2023-05-10T05:58:01.278Z,1.30
2023-05-10T06:00:32.227Z,1.60
2023-05-10T06:03:03.062Z,1.40
2023-05-10T06:05:33.973Z,1.65
2023-05-10T06:08:04.290Z,1.50
2023-05-10T06:10:35.527Z,1.58
2023-05-10T06:13:06.555Z,1.15
2023-05-10T06:15:37.110Z,1.40
2023-05-10T06:18:08.312Z,1.60
2023-05-10T06:20:39.187Z,1.40
2023-05-10T06:23:10.860Z,1.50
2023-05-10T06:25:41.652Z,1.48
2023-05-10T06:28:12.693Z,1.58
2023-05-10T06:30:44.062Z,1.90
2023-05-10T06:33:15.506Z,1.52
2023-05-10T06:35:45.804Z,1.40
2023-05-10T06:38:16.571Z,1.60
2023-05-10T06:40:47.358Z,1.50
2023-05-10T06:43:18.882Z,1.67
2023-05-10T06:45:50.396Z,1.50
2023-05-10T06:48:20.886Z,1.25
2023-05-10T06:50:51.448Z,1.60
2023-05-10T06:53:21.513Z,1.50
2023-05-10T06:55:52.685Z,1.70
2023-05-10T06:58:23.636Z,1.55
2023-05-10T07:00:53.834Z,1.45
2023-05-10T07:03:24.297Z,1.48
2023-05-10T07:05:54.357Z,1.35
2023-05-10T07:08:24.772Z,1.25
2023-05-10T07:10:55.544Z,1.50
2023-05-10T07:13:25.835Z,1.50
2023-05-10T07:15:55.907Z,1.30
2023-05-10T07:18:27.541Z,1.33
2023-05-10T07:20:58.966Z,1.50
2023-05-10T07:23:29.973Z,1.30
2023-05-10T07:26:00.471Z,1.27
2023-05-10T07:28:30.682Z,1.42
2023-05-10T07:31:01.414Z,1.20
2023-05-10T07:33:32.599Z,1.40
2023-05-10T07:36:03.568Z,1.13
2023-05-10T07:38:33.748Z,1.38
2023-05-10T07:41:04.063Z,1.25
2023-05-10T07:43:34.361Z,1.30
2023-05-10T07:46:04.410Z,1.40
2023-05-10T07:48:35.360Z,1.45
2023-05-10T07:51:06.586Z,1.40
2023-05-10T07:53:38.110Z,1.48
2023-05-10T07:56:26.134Z,1.40
2023-05-10T07:58:58.902Z,1.42
2023-05-10T08:01:30.003Z,1.50
2023-05-10T08:04:00.071Z,1.23
2023-05-10T08:06:33.492Z,1.15
2023-05-10T08:09:04.573Z,1.58
2023-05-10T08:11:38.424Z,1.50
2023-05-10T08:14:09.464Z,1.70
2023-05-10T08:16:40.584Z,1.60
2023-05-10T08:19:11.512Z,1.92
2023-05-10T08:21:43.091Z,1.58
2023-05-10T08:24:13.313Z,1.30
2023-05-10T08:26:43.587Z,1.50
2023-05-10T08:29:15.041Z,1.50
2023-05-10T08:31:45.395Z,1.40
2023-05-10T08:34:16.284Z,1.38
2023-05-10T08:36:46.999Z,1.35
2023-05-10T08:39:29.347Z,1.35
2023-05-10T08:42:05.003Z,1.33
2023-05-10T08:44:39.622Z,1.33
2023-05-10T08:47:11.996Z,1.63
2023-05-10T08:49:42.964Z,1.50
2023-05-10T08:52:16.354Z,1.38
2023-05-10T08:54:46.973Z,1.35
2023-05-10T08:57:17.716Z,1.40
2023-05-10T08:59:48.956Z,1.45
2023-05-10T09:02:21.749Z,1.40
2023-05-10T09:04:52.798Z,1.30
2023-05-10T09:07:24.010Z,1.60
2023-05-10T09:09:58.000Z,1.55
2023-05-10T09:12:29.168Z,1.42
2023-05-10T09:15:03.316Z,1.23
2023-05-10T09:17:33.797Z,1.45
2023-05-10T09:20:07.901Z,1.50
2023-05-10T09:22:39.799Z,1.67
2023-05-10T09:25:15.977Z,1.50
2023-05-10T09:27:52.593Z,1.38
2023-05-10T09:30:32.516Z,1.38
2023-05-10T09:33:03.652Z,1.50
2023-05-10T09:35:36.534Z,1.38
2023-05-10T09:38:07.984Z,1.40
2023-05-10T09:40:39.490Z,1.30
2023-05-10T09:43:11.094Z,1.52
2023-05-10T09:45:44.604Z,1.83
2023-05-10T09:48:19.604Z,1.60
2023-05-10T09:51:00.087Z,1.55
2023-05-10T09:53:31.224Z,1.90
2023-05-10T09:56:02.123Z,2.15
2023-05-10T09:58:33.222Z,1.70
2023-05-10T10:01:04.466Z,1.75
2023-05-10T10:03:35.937Z,1.42
2023-05-10T10:06:15.975Z,1.33
2023-05-10T10:08:56.243Z,1.42
2023-05-10T10:11:27.203Z,1.58
2023-05-10T10:13:58.709Z,1.80
2023-05-10T10:16:32.886Z,1.65
2023-05-10T10:19:04.058Z,1.67
2023-05-10T10:21:36.694Z,1.45
2023-05-10T10:24:08.197Z,1.40
2023-05-10T10:26:47.902Z,1.45
2023-05-10T10:29:34.801Z,1.42
2023-05-10T10:32:28.365Z,1.65
2023-05-10T10:34:59.842Z,1.40
2023-05-10T10:37:48.429Z,1.50
2023-05-10T10:40:34.820Z,1.52
2023-05-10T10:43:28.830Z,1.33
2023-05-10T10:46:21.860Z,1.60
2023-05-10T10:49:11.223Z,1.10
2023-05-10T10:51:42.238Z,1.20
2023-05-10T10:54:14.911Z,1.30
2023-05-10T10:56:48.610Z,1.15
2023-05-10T10:59:30.540Z,1.10
2023-05-10T11:02:02.715Z,1.20
2023-05-10T11:04:49.774Z,1.30
2023-05-10T11:07:22.081Z,1.15
2023-05-10T11:09:53.401Z,1.70
2023-05-10T11:12:24.408Z,1.48
2023-05-10T11:14:55.798Z,1.60
2023-05-10T11:17:28.880Z,1.40
2023-05-10T11:20:17.760Z,1.50
2023-05-10T11:22:57.207Z,1.13
2023-05-10T11:25:31.480Z,1.40
2023-05-10T11:28:08.411Z,1.20
2023-05-10T11:30:40.777Z,1.60
2023-05-10T11:33:12.824Z,1.80
2023-05-10T11:35:44.689Z,1.60
2023-05-10T11:38:17.411Z,1.60
2023-05-10T11:40:47.828Z,1.50
2023-05-10T11:43:18.611Z,1.33
2023-05-10T11:45:49.044Z,1.25
2023-05-10T11:48:24.661Z,1.42
2023-05-10T11:50:58.681Z,1.40
2023-05-10T11:53:37.013Z,1.33
2023-05-10T11:56:11.832Z,1.35
2023-05-10T11:58:43.526Z,1.35
2023-05-10T12:01:15.406Z,1.38
2023-05-10T12:03:45.800Z,1.20
2023-05-10T12:06:16.490Z,1.20
2023-05-10T12:08:54.892Z,1.25
2023-05-10T12:11:29.241Z,1.20
2023-05-10T12:13:59.553Z,1.23
2023-05-10T12:16:32.161Z,1.20
2023-05-10T12:19:03.615Z,1.35
2023-05-10T12:21:35.060Z,1.10
2023-05-10T12:24:08.006Z,1.05
2023-05-10T12:26:38.977Z,1.27
2023-05-10T12:29:22.162Z,1.40
2023-05-10T12:31:59.980Z,1.10
2023-05-10T12:34:34.437Z,1.20
2023-05-10T12:37:06.841Z,1.13
2023-05-10T12:39:48.483Z,1.48
2023-05-10T12:42:19.699Z,1.15
2023-05-10T12:44:50.695Z,1.00
2023-05-10T12:47:21.561Z,1.10
2023-05-10T12:49:52.873Z,1.00
2023-05-10T12:52:24.417Z,1.15
2023-05-10T12:54:56.805Z,1.23
2023-05-10T12:57:28.175Z,1.10
2023-05-10T12:59:58.538Z,1.73
2023-05-10T13:02:29.836Z,1.48
2023-05-10T13:05:00.561Z,1.50
2023-05-10T13:07:32.088Z,1.15
2023-05-10T13:10:02.498Z,1.30
2023-05-10T13:12:33.805Z,1.58
2023-05-10T13:15:05.420Z,1.20
2023-05-10T13:17:35.674Z,1.45
2023-05-10T13:20:05.874Z,1.25
2023-05-10T13:22:40.500Z,1.50
2023-05-10T13:25:11.472Z,1.17
2023-05-10T13:27:43.742Z,1.70
2023-05-10T13:30:14.634Z,1.13
2023-05-10T13:32:44.824Z,1.30
2023-05-10T13:35:15.297Z,1.05
2023-05-10T13:37:46.295Z,1.23
2023-05-10T13:40:18.977Z,1.20
2023-05-10T13:42:49.502Z,1.15
2023-05-10T13:45:20.378Z,1.00
2023-05-10T13:47:51.062Z,1.35
2023-05-10T13:50:22.268Z,1.25
2023-05-10T13:52:53.253Z,1.20
2023-05-10T13:55:24.163Z,0.85
2023-05-10T13:57:55.962Z,1.15
2023-05-10T14:00:29.316Z,1.38
2023-05-10T14:03:02.377Z,1.10
2023-05-10T14:05:32.903Z,1.00
2023-05-10T14:08:04.674Z,1.10
2023-05-10T14:10:34.851Z,1.20
2023-05-10T14:13:06.431Z,0.93
2023-05-10T14:15:36.808Z,1.30
2023-05-10T14:18:06.909Z,1.00
2023-05-10T14:20:38.640Z,1.17
2023-05-10T14:23:11.198Z,1.08
2023-05-10T14:25:45.004Z,1.33
2023-05-10T14:28:15.379Z,1.17
2023-05-10T14:30:45.543Z,1.30
2023-05-10T14:33:16.695Z,1.30
2023-05-10T14:35:49.835Z,1.30
2023-05-10T14:38:20.807Z,1.83
2023-05-10T14:40:50.844Z,1.40
2023-05-10T14:43:21.027Z,1.30
2023-05-10T14:45:51.099Z,1.42
2023-05-10T14:48:21.458Z,1.40
2023-05-10T14:50:52.967Z,1.42
2023-05-10T14:53:23.285Z,1.52
2023-05-10T14:55:54.137Z,2.60
2023-05-10T14:58:25.076Z,4.85
2023-05-10T15:00:58.214Z,2.00
2023-05-10T15:03:29.270Z,1.50
2023-05-10T15:06:00.652Z,1.40
2023-05-10T15:08:37.832Z,1.67
2023-05-10T15:11:21.429Z,1.42
2023-05-10T15:13:56.910Z,1.48
2023-05-10T15:16:35.822Z,1.42
2023-05-10T15:19:09.903Z,1.33
2023-05-10T15:21:47.964Z,1.67
2023-05-10T15:24:38.663Z,1.25
2023-05-10T15:27:12.667Z,1.60
2023-05-10T15:29:42.974Z,1.55
2023-05-10T15:32:13.574Z,1.25
2023-05-10T15:34:59.590Z,1.30
2023-05-10T15:37:40.392Z,1.10
2023-05-10T15:40:26.219Z,1.02
2023-05-10T15:42:58.934Z,3.33
2023-05-10T15:45:32.892Z,3.53
2023-05-10T15:48:14.359Z,4.55
2023-05-10T15:50:51.270Z,1.70
2023-05-10T15:53:28.146Z,0.90
2023-05-10T15:55:58.589Z,0.82
2023-05-10T15:58:29.369Z,0.85
2023-05-10T16:01:18.492Z,0.43
2023-05-10T16:03:52.882Z,0.90
2023-05-10T16:06:28.435Z,0.90
2023-05-10T16:11:46.043Z,0.90
2023-05-10T16:14:20.419Z,0.68
2023-05-10T16:16:59.475Z,0.85
2023-05-10T16:19:45.666Z,0.88
2023-05-10T16:22:43.244Z,0.93
2023-05-10T16:25:15.847Z,1.02
2023-05-10T16:27:49.328Z,0.93
2023-05-10T16:30:30.231Z,0.70
2023-05-10T16:33:06.005Z,0.60
2023-05-10T16:35:37.496Z,0.80
2023-05-10T16:38:08.739Z,0.88
2023-05-10T16:40:38.902Z,0.93
2023-05-10T16:43:09.167Z,0.70
2023-05-10T16:45:39.582Z,0.90
2023-05-10T16:48:09.683Z,0.88
2023-05-10T16:50:41.097Z,1.55
2023-05-10T16:53:13.059Z,1.13
2023-05-10T16:55:43.491Z,0.90
2023-05-10T16:58:13.519Z,1.00
2023-05-10T17:00:44.267Z,0.85
2023-05-10T17:03:14.458Z,0.90
2023-05-10T17:05:45.523Z,0.80
2023-05-10T17:08:17.334Z,1.00
2023-05-10T17:10:48.162Z,0.68
2023-05-10T17:13:19.356Z,0.60
2023-05-10T17:15:50.271Z,0.52
2023-05-10T17:18:21.840Z,0.77
2023-05-10T17:20:52.998Z,0.90
2023-05-10T17:23:23.162Z,0.80
2023-05-10T17:25:53.190Z,1.00
2023-05-10T17:28:23.590Z,0.70
2023-05-10T17:31:01.635Z,0.90
2023-05-10T17:33:32.763Z,0.90
2023-05-10T17:36:04.024Z,0.93
2023-05-10T17:38:34.274Z,0.85
2023-05-10T17:41:05.056Z,0.80
2023-05-10T17:43:35.429Z,0.65
2023-05-10T17:46:05.472Z,0.80
2023-05-10T17:48:38.326Z,0.77
2023-05-10T17:51:09.742Z,0.95
2023-05-10T17:53:42.596Z,0.60
2023-05-10T17:56:14.209Z,0.70
2023-05-10T17:58:45.449Z,0.70
2023-05-10T18:01:16.133Z,0.50
2023-05-10T18:03:47.389Z,0.70
2023-05-10T18:06:17.582Z,0.75
2023-05-10T18:08:47.784Z,0.70
2023-05-10T18:11:21.091Z,0.68
2023-05-10T18:13:52.817Z,0.70
2023-05-10T18:16:23.831Z,0.70
2023-05-10T18:18:54.990Z,0.80
2023-05-10T18:21:26.752Z,0.80
2023-05-10T18:23:58.281Z,0.70
2023-05-10T18:26:29.172Z,0.95
2023-05-10T18:29:01.657Z,0.73
2023-05-10T18:31:35.394Z,0.60
2023-05-10T18:34:07.205Z,0.75
2023-05-10T18:36:38.462Z,0.70
2023-05-10T18:39:13.124Z,0.73
2023-05-10T18:41:45.756Z,0.95
2023-05-10T18:44:17.474Z,0.65
2023-05-10T18:46:50.985Z,0.70
2023-05-10T18:49:24.414Z,0.80
2023-05-10T18:51:55.738Z,0.68
2023-05-10T18:54:26.531Z,0.75
2023-05-10T18:57:01.280Z,0.88
2023-05-10T18:59:33.859Z,0.80
2023-05-10T19:02:05.058Z,0.70
2023-05-10T19:04:36.331Z,0.68
2023-05-10T19:07:06.997Z,0.75
2023-05-10T19:09:37.582Z,0.63
2023-05-10T19:12:08.632Z,0.88
2023-05-10T19:14:39.111Z,0.80
2023-05-10T19:17:09.502Z,0.93
2023-05-10T19:19:39.863Z,0.73
2023-05-10T19:22:11.221Z,1.00
2023-05-10T19:24:43.993Z,0.80
2023-05-10T19:27:15.820Z,1.00
2023-05-10T19:29:46.094Z,0.80
2023-05-10T19:32:16.098Z,0.93
2023-05-10T19:34:46.273Z,0.90
2023-05-10T19:37:17.013Z,0.95
2023-05-10T19:39:48.276Z,1.20
2023-05-10T19:42:21.452Z,1.20
2023-05-10T19:44:53.449Z,1.25
2023-05-10T19:47:24.887Z,1.30
2023-05-10T19:49:55.984Z,1.20
2023-05-10T19:52:26.579Z,1.30
2023-05-10T19:54:56.552Z,1.27
2023-05-10T19:57:26.935Z,1.60
2023-05-10T19:59:56.933Z,1.40
2023-05-10T20:02:27.958Z,1.25
2023-05-10T20:04:58.923Z,1.40
2023-05-10T20:07:29.080Z,1.38
2023-05-10T20:09:59.149Z,1.70
2023-05-10T20:12:30.791Z,1.42
2023-05-10T20:15:01.768Z,1.80
2023-05-10T20:17:33.439Z,1.48
2023-05-10T20:20:05.104Z,1.80
2023-05-10T20:22:36.054Z,1.65
2023-05-10T20:25:06.782Z,1.70
2023-05-10T20:27:36.858Z,1.83
2023-05-10T20:30:08.489Z,1.67
2023-05-10T20:32:41.777Z,1.80
2023-05-10T20:35:12.748Z,1.52
2023-05-10T20:37:42.842Z,1.50
2023-05-10T20:40:13.576Z,1.45
2023-05-10T20:42:43.293Z,1.70
2023-05-10T20:45:18.173Z,1.55
2023-05-10T20:47:49.349Z,1.13
2023-05-10T20:50:19.838Z,1.40
2023-05-10T20:52:53.210Z,1.70
2023-05-10T20:55:23.473Z,1.40
2023-05-10T20:57:55.484Z,1.50
2023-05-10T21:00:25.959Z,1.10
2023-05-10T21:02:56.550Z,1.20
2023-05-10T21:05:27.208Z,1.30
2023-05-10T21:07:57.658Z,1.35
2023-05-10T21:10:29.748Z,1.60
2023-05-10T21:13:00.888Z,1.30
2023-05-10T21:15:31.165Z,1.13
2023-05-10T21:18:01.437Z,1.42
2023-05-10T21:20:32.439Z,1.33
2023-05-10T21:23:02.539Z,1.27
2023-05-10T21:25:33.976Z,1.40
2023-05-10T21:28:05.717Z,1.80
2023-05-10T21:30:37.017Z,1.60
2023-05-10T21:33:07.523Z,1.58
2023-05-10T21:35:40.724Z,1.73
2023-05-10T21:38:11.498Z,1.42
2023-05-10T21:40:42.056Z,1.88
2023-05-10T21:43:12.715Z,1.88
2023-05-10T21:45:42.854Z,1.75
2023-05-10T21:48:14.512Z,1.58
2023-05-10T21:50:46.110Z,1.75
2023-05-10T21:53:16.790Z,1.70
2023-05-10T21:55:47.539Z,1.80
2023-05-10T21:58:17.886Z,2.13
2023-05-10T22:00:48.099Z,1.90
2023-05-10T22:03:20.177Z,1.98
2023-05-10T22:05:51.387Z,1.98
2023-05-10T22:08:23.097Z,1.92
2023-05-10T22:10:55.168Z,1.80
2023-05-10T22:13:25.456Z,1.88
2023-05-10T22:15:55.511Z,1.80
2023-05-10T22:18:25.942Z,1.60
2023-05-10T22:20:55.982Z,1.98
2023-05-10T22:23:27.108Z,1.90
2023-05-10T22:26:02.738Z,1.73
2023-05-10T22:28:33.959Z,2.00
2023-05-10T22:31:05.543Z,1.80
2023-05-10T22:33:36.510Z,1.92
2023-05-10T22:36:08.284Z,1.90
2023-05-10T22:38:39.750Z,1.90
2023-05-10T22:41:09.877Z,1.83
2023-05-10T22:43:39.929Z,1.92
2023-05-10T22:46:10.237Z,2.17
2023-05-10T22:48:41.015Z,2.10
2023-05-10T22:51:12.988Z,2.13
2023-05-10T22:53:43.421Z,2.28
2023-05-10T22:56:14.159Z,2.00
2023-05-10T22:58:44.751Z,1.58
2023-05-10T23:01:15.804Z,1.90
2023-05-10T23:03:45.871Z,1.83
2023-05-10T23:06:17.006Z,1.90
2023-05-10T23:08:47.197Z,1.73
2023-05-10T23:11:17.455Z,1.48
2023-05-10T23:13:48.997Z,1.73
2023-05-10T23:16:20.665Z,1.80
2023-05-10T23:18:51.678Z,1.58
2023-05-10T23:21:21.796Z,1.70
2023-05-10T23:23:52.079Z,1.77
2023-05-10T23:26:23.158Z,1.90
2023-05-10T23:28:53.302Z,1.83
2023-05-10T23:31:24.089Z,1.70
2023-05-10T23:33:54.710Z,1.90
2023-05-10T23:36:25.594Z,1.90
2023-05-10T23:38:56.732Z,1.83
2023-05-10T23:41:27.821Z,1.90
2023-05-10T23:43:58.775Z,1.60
2023-05-10T23:46:28.836Z,1.75
2023-05-10T23:48:59.150Z,1.58
2023-05-10T23:51:30.861Z,1.42
2023-05-10T23:54:02.428Z,1.63
2023-05-10T23:56:32.723Z,1.90
2023-05-10T23:59:02.760Z,1.83
